sensor_id;sensor_type;location;lat;lon;timestamp;temperature;humidity
15107;DHT22;7654;45.308;-75.096;2023-02-01T00:00:14;-18.00;99.90
15107;DHT22;7654;45.308;-75.096;2023-02-01T00:02:44;-18.20;99.90
15107;DHT22;7654;45.308;-75.096;2023-02-01T00:05:14;-18.30;99.90
15107;DHT22;7654;45.308;-75.096;2023-02-01T00:07:48;-18.20;99.90
15107;DHT22;7654;45.308;-75.096;2023-02-01T00:10:19;-18.00;99.90
15107;DHT22;7654;45.308;-75.096;2023-02-01T00:12:49;-18.30;99.90
15107;DHT22;7654;45.308;-75.096;2023-02-01T00:15:20;-18.40;99.90
15107;DHT22;7654;45.308;-75.096;2023-02-01T00:17:53;-18.50;99.90
15107;DHT22;7654;45.308;-75.096;2023-02-01T00:20:24;-18.50;99.90
15107;DHT22;7654;45.308;-75.096;2023-02-01T00:22:56;-18.60;99.90
15107;DHT22;7654;45.308;-75.096;2023-02-01T00:25:26;-18.80;99.90
15107;DHT22;7654;45.308;-75.096;2023-02-01T00:27:56;-18.90;99.90
15107;DHT22;7654;45.308;-75.096;2023-02-01T00:30:27;-19.00;99.90
15107;DHT22;7654;45.308;-75.096;2023-02-01T00:32:58;-19.10;99.90
15107;DHT22;7654;45.308;-75.096;2023-02-01T00:35:30;-19.10;99.90
15107;DHT22;7654;45.308;-75.096;2023-02-01T00:38:02;-19.10;99.90
15107;DHT22;7654;45.308;-75.096;2023-02-01T00:40:34;-19.10;99.90
15107;DHT22;7654;45.308;-75.096;2023-02-01T00:43:04;-19.20;99.90
15107;DHT22;7654;45.308;-75.096;2023-02-01T00:45:34;-19.30;99.90
15107;DHT22;7654;45.308;-75.096;2023-02-01T00:48:05;-19.30;99.90
15107;DHT22;7654;45.308;-75.096;2023-02-01T00:50:36;-19.40;99.90
15107;DHT22;7654;45.308;-75.096;2023-02-01T00:53:13;-19.40;99.90
15107;DHT22;7654;45.308;-75.096;2023-02-01T00:55:45;-19.50;99.90
15107;DHT22;7654;45.308;-75.096;2023-02-01T00:58:16;-19.60;99.90
15107;DHT22;7654;45.308;-75.096;2023-02-01T01:00:46;-19.70;99.90
15107;DHT22;7654;45.308;-75.096;2023-02-01T01:03:17;-19.90;99.90
15107;DHT22;7654;45.308;-75.096;2023-02-01T01:05:48;-20.00;99.90
15107;DHT22;7654;45.308;-75.096;2023-02-01T01:08:19;-20.10;99.90
15107;DHT22;7654;45.308;-75.096;2023-02-01T01:10:50;-20.20;99.90
15107;DHT22;7654;45.308;-75.096;2023-02-01T01:13:20;-20.10;99.90
15107;DHT22;7654;45.308;-75.096;2023-02-01T01:15:50;-20.00;99.90
15107;DHT22;7654;45.308;-75.096;2023-02-01T01:18:20;-19.90;99.90
15107;DHT22;7654;45.308;-75.096;2023-02-01T01:20:51;-19.80;99.90
15107;DHT22;7654;45.308;-75.096;2023-02-01T01:23:23;-19.80;99.90
15107;DHT22;7654;45.308;-75.096;2023-02-01T01:25:53;-19.90;99.90
15107;DHT22;7654;45.308;-75.096;2023-02-01T01:28:24;-19.90;99.90
15107;DHT22;7654;45.308;-75.096;2023-02-01T01:30:54;-19.90;99.90
15107;DHT22;7654;45.308;-75.096;2023-02-01T01:33:24;-19.90;99.90
15107;DHT22;7654;45.308;-75.096;2023-02-01T01:35:55;-19.90;99.90
15107;DHT22;7654;45.308;-75.096;2023-02-01T01:38:26;-20.00;99.90
15107;DHT22;7654;45.308;-75.096;2023-02-01T01:40:56;-20.10;99.90
15107;DHT22;7654;45.308;-75.096;2023-02-01T01:43:49;-20.30;99.90
15107;DHT22;7654;45.308;-75.096;2023-02-01T01:46:21;-20.50;99.90
15107;DHT22;7654;45.308;-75.096;2023-02-01T01:48:56;-20.60;99.90
15107;DHT22;7654;45.308;-75.096;2023-02-01T01:51:29;-20.70;99.90
15107;DHT22;7654;45.308;-75.096;2023-02-01T01:54:07;-20.70;99.90
15107;DHT22;7654;45.308;-75.096;2023-02-01T01:56:42;-20.70;99.90
15107;DHT22;7654;45.308;-75.096;2023-02-01T01:59:12;-20.70;99.90
15107;DHT22;7654;45.308;-75.096;2023-02-01T02:01:43;-20.70;99.90
15107;DHT22;7654;45.308;-75.096;2023-02-01T02:04:13;-20.90;99.90
15107;DHT22;7654;45.308;-75.096;2023-02-01T02:06:47;-21.00;99.90
15107;DHT22;7654;45.308;-75.096;2023-02-01T02:09:21;-21.10;99.90
15107;DHT22;7654;45.308;-75.096;2023-02-01T02:11:51;-21.10;99.90
15107;DHT22;7654;45.308;-75.096;2023-02-01T02:14:23;-21.10;99.90
15107;DHT22;7654;45.308;-75.096;2023-02-01T02:17:12;-21.20;99.90
15107;DHT22;7654;45.308;-75.096;2023-02-01T02:20:07;-21.20;99.90
15107;DHT22;7654;45.308;-75.096;2023-02-01T02:26:24;-21.40;99.90
15107;DHT22;7654;45.308;-75.096;2023-02-01T02:34:52;-21.60;99.90
15107;DHT22;7654;45.308;-75.096;2023-02-01T02:37:32;-21.50;99.90
15107;DHT22;7654;45.308;-75.096;2023-02-01T02:40:10;-21.40;99.90
15107;DHT22;7654;45.308;-75.096;2023-02-01T02:42:47;-21.50;99.90
15107;DHT22;7654;45.308;-75.096;2023-02-01T02:45:41;-21.60;99.90
15107;DHT22;7654;45.308;-75.096;2023-02-01T02:48:32;-21.70;99.90
15107;DHT22;7654;45.308;-75.096;2023-02-01T02:51:12;-21.80;99.90
15107;DHT22;7654;45.308;-75.096;2023-02-01T02:54:06;-21.90;99.90
15107;DHT22;7654;45.308;-75.096;2023-02-01T02:56:56;-21.90;99.90
15107;DHT22;7654;45.308;-75.096;2023-02-01T02:59:45;-22.00;99.90
15107;DHT22;7654;45.308;-75.096;2023-02-01T03:02:33;-22.10;99.90
15107;DHT22;7654;45.308;-75.096;2023-02-01T03:05:20;-22.20;99.90
15107;DHT22;7654;45.308;-75.096;2023-02-01T03:08:01;-22.30;99.90
15107;DHT22;7654;45.308;-75.096;2023-02-01T03:10:39;-22.40;99.90
15107;DHT22;7654;45.308;-75.096;2023-02-01T03:13:13;-22.40;99.90
15107;DHT22;7654;45.308;-75.096;2023-02-01T03:15:48;-22.50;99.90
15107;DHT22;7654;45.308;-75.096;2023-02-01T03:18:28;-22.50;99.90
15107;DHT22;7654;45.308;-75.096;2023-02-01T03:21:03;-22.50;99.90
15107;DHT22;7654;45.308;-75.096;2023-02-01T03:23:37;-22.50;99.90
15107;DHT22;7654;45.308;-75.096;2023-02-01T03:26:10;-22.50;99.90
15107;DHT22;7654;45.308;-75.096;2023-02-01T03:28:47;-22.60;99.90
15107;DHT22;7654;45.308;-75.096;2023-02-01T03:31:19;-22.60;99.90
15107;DHT22;7654;45.308;-75.096;2023-02-01T03:33:50;-22.60;99.90
15107;DHT22;7654;45.308;-75.096;2023-02-01T03:36:25;-22.50;99.90
15107;DHT22;7654;45.308;-75.096;2023-02-01T03:39:02;-22.50;99.90
15107;DHT22;7654;45.308;-75.096;2023-02-01T03:41:50;-22.50;99.90
15107;DHT22;7654;45.308;-75.096;2023-02-01T03:44:23;-22.50;99.90
15107;DHT22;7654;45.308;-75.096;2023-02-01T03:46:58;-22.60;99.90
15107;DHT22;7654;45.308;-75.096;2023-02-01T03:49:37;-22.70;99.90
15107;DHT22;7654;45.308;-75.096;2023-02-01T03:52:12;-22.70;99.90
15107;DHT22;7654;45.308;-75.096;2023-02-01T03:54:45;-22.60;99.90
15107;DHT22;7654;45.308;-75.096;2023-02-01T03:57:20;-22.60;99.90
15107;DHT22;7654;45.308;-75.096;2023-02-01T03:59:51;-22.70;99.90
15107;DHT22;7654;45.308;-75.096;2023-02-01T04:02:21;-22.80;99.90
15107;DHT22;7654;45.308;-75.096;2023-02-01T04:04:52;-22.80;99.90
15107;DHT22;7654;45.308;-75.096;2023-02-01T04:07:22;-22.70;99.90
15107;DHT22;7654;45.308;-75.096;2023-02-01T04:09:54;-22.80;99.90
15107;DHT22;7654;45.308;-75.096;2023-02-01T04:12:24;-22.90;99.90
15107;DHT22;7654;45.308;-75.096;2023-02-01T04:14:54;-22.80;99.90
15107;DHT22;7654;45.308;-75.096;2023-02-01T04:17:24;-22.80;99.90
15107;DHT22;7654;45.308;-75.096;2023-02-01T04:19:54;-22.80;99.90
15107;DHT22;7654;45.308;-75.096;2023-02-01T04:22:25;-22.90;99.90
15107;DHT22;7654;45.308;-75.096;2023-02-01T04:24:57;-23.00;99.90
15107;DHT22;7654;45.308;-75.096;2023-02-01T04:27:30;-23.00;99.90
15107;DHT22;7654;45.308;-75.096;2023-02-01T04:30:01;-23.10;99.90
15107;DHT22;7654;45.308;-75.096;2023-02-01T04:32:32;-23.10;99.90
15107;DHT22;7654;45.308;-75.096;2023-02-01T04:35:02;-23.10;99.90
15107;DHT22;7654;45.308;-75.096;2023-02-01T04:37:32;-23.20;99.90
15107;DHT22;7654;45.308;-75.096;2023-02-01T04:40:05;-23.10;99.90
15107;DHT22;7654;45.308;-75.096;2023-02-01T04:42:35;-23.10;99.90
15107;DHT22;7654;45.308;-75.096;2023-02-01T04:45:06;-23.20;99.90
15107;DHT22;7654;45.308;-75.096;2023-02-01T04:47:37;-23.20;99.90
15107;DHT22;7654;45.308;-75.096;2023-02-01T04:50:08;-23.30;99.90
15107;DHT22;7654;45.308;-75.096;2023-02-01T04:52:38;-23.30;99.90
15107;DHT22;7654;45.308;-75.096;2023-02-01T04:55:10;-23.40;99.90
15107;DHT22;7654;45.308;-75.096;2023-02-01T04:57:41;-23.50;99.90
15107;DHT22;7654;45.308;-75.096;2023-02-01T05:00:12;-23.50;99.90
15107;DHT22;7654;45.308;-75.096;2023-02-01T05:02:43;-23.50;99.90
15107;DHT22;7654;45.308;-75.096;2023-02-01T05:05:13;-23.50;99.90
15107;DHT22;7654;45.308;-75.096;2023-02-01T05:07:43;-23.40;99.90
15107;DHT22;7654;45.308;-75.096;2023-02-01T05:10:17;-23.30;99.90
15107;DHT22;7654;45.308;-75.096;2023-02-01T05:12:48;-23.30;99.90
15107;DHT22;7654;45.308;-75.096;2023-02-01T05:15:35;-23.40;99.90
15107;DHT22;7654;45.308;-75.096;2023-02-01T05:18:05;-23.50;99.90
15107;DHT22;7654;45.308;-75.096;2023-02-01T05:20:36;-23.50;99.90
15107;DHT22;7654;45.308;-75.096;2023-02-01T05:23:06;-23.60;99.90
15107;DHT22;7654;45.308;-75.096;2023-02-01T05:25:38;-23.60;99.90
15107;DHT22;7654;45.308;-75.096;2023-02-01T05:28:08;-23.70;99.90
15107;DHT22;7654;45.308;-75.096;2023-02-01T05:30:38;-23.70;99.90
15107;DHT22;7654;45.308;-75.096;2023-02-01T05:33:09;-23.70;99.90
15107;DHT22;7654;45.308;-75.096;2023-02-01T05:35:39;-23.80;99.90
15107;DHT22;7654;45.308;-75.096;2023-02-01T05:38:09;-23.80;99.90
15107;DHT22;7654;45.308;-75.096;2023-02-01T05:40:41;-23.70;99.90
15107;DHT22;7654;45.308;-75.096;2023-02-01T05:43:17;-23.70;99.90
15107;DHT22;7654;45.308;-75.096;2023-02-01T05:45:47;-23.80;99.90
15107;DHT22;7654;45.308;-75.096;2023-02-01T05:48:18;-23.80;99.90
15107;DHT22;7654;45.308;-75.096;2023-02-01T05:50:48;-23.90;99.90
15107;DHT22;7654;45.308;-75.096;2023-02-01T05:53:18;-24.00;99.90
15107;DHT22;7654;45.308;-75.096;2023-02-01T05:55:49;-24.00;99.90
15107;DHT22;7654;45.308;-75.096;2023-02-01T05:58:20;-24.10;99.90
15107;DHT22;7654;45.308;-75.096;2023-02-01T06:00:50;-24.10;99.90
15107;DHT22;7654;45.308;-75.096;2023-02-01T06:03:20;-24.10;99.90
15107;DHT22;7654;45.308;-75.096;2023-02-01T06:05:50;-24.10;99.90
15107;DHT22;7654;45.308;-75.096;2023-02-01T06:08:20;-24.00;99.90
15107;DHT22;7654;45.308;-75.096;2023-02-01T06:10:59;-24.00;99.90
15107;DHT22;7654;45.308;-75.096;2023-02-01T06:13:30;-24.10;99.90
15107;DHT22;7654;45.308;-75.096;2023-02-01T06:16:02;-24.00;99.90
15107;DHT22;7654;45.308;-75.096;2023-02-01T06:18:34;-24.10;99.90
15107;DHT22;7654;45.308;-75.096;2023-02-01T06:21:05;-24.20;99.90
15107;DHT22;7654;45.308;-75.096;2023-02-01T06:23:35;-24.30;99.90
15107;DHT22;7654;45.308;-75.096;2023-02-01T06:26:07;-24.30;99.90
15107;DHT22;7654;45.308;-75.096;2023-02-01T06:28:37;-24.40;99.90
15107;DHT22;7654;45.308;-75.096;2023-02-01T06:31:08;-24.40;99.90
15107;DHT22;7654;45.308;-75.096;2023-02-01T06:33:38;-24.50;99.90
15107;DHT22;7654;45.308;-75.096;2023-02-01T06:36:11;-24.60;99.90
15107;DHT22;7654;45.308;-75.096;2023-02-01T06:38:42;-24.60;99.90
15107;DHT22;7654;45.308;-75.096;2023-02-01T06:41:14;-24.70;99.90
15107;DHT22;7654;45.308;-75.096;2023-02-01T06:43:44;-24.70;99.90
15107;DHT22;7654;45.308;-75.096;2023-02-01T06:46:15;-24.70;99.90
15107;DHT22;7654;45.308;-75.096;2023-02-01T06:48:45;-24.80;99.90
15107;DHT22;7654;45.308;-75.096;2023-02-01T06:51:20;-24.80;99.90
15107;DHT22;7654;45.308;-75.096;2023-02-01T06:53:51;-24.90;99.90
15107;DHT22;7654;45.308;-75.096;2023-02-01T06:56:23;-24.90;99.90
15107;DHT22;7654;45.308;-75.096;2023-02-01T06:58:53;-24.90;99.90
15107;DHT22;7654;45.308;-75.096;2023-02-01T07:01:23;-25.00;99.90
15107;DHT22;7654;45.308;-75.096;2023-02-01T07:03:53;-25.00;99.90
15107;DHT22;7654;45.308;-75.096;2023-02-01T07:06:24;-25.00;99.90
15107;DHT22;7654;45.308;-75.096;2023-02-01T07:08:54;-25.00;99.90
15107;DHT22;7654;45.308;-75.096;2023-02-01T07:11:28;-25.00;99.90
15107;DHT22;7654;45.308;-75.096;2023-02-01T07:13:59;-25.00;99.90
15107;DHT22;7654;45.308;-75.096;2023-02-01T07:16:29;-24.90;99.90
15107;DHT22;7654;45.308;-75.096;2023-02-01T07:18:59;-25.00;99.90
15107;DHT22;7654;45.308;-75.096;2023-02-01T07:21:30;-25.00;99.90
15107;DHT22;7654;45.308;-75.096;2023-02-01T07:24:00;-25.00;99.90
15107;DHT22;7654;45.308;-75.096;2023-02-01T07:26:32;-25.00;99.90
15107;DHT22;7654;45.308;-75.096;2023-02-01T07:29:02;-25.00;99.90
15107;DHT22;7654;45.308;-75.096;2023-02-01T07:31:32;-25.00;99.90
15107;DHT22;7654;45.308;-75.096;2023-02-01T07:34:02;-25.00;99.90
15107;DHT22;7654;45.308;-75.096;2023-02-01T07:36:32;-25.00;99.90
15107;DHT22;7654;45.308;-75.096;2023-02-01T07:39:04;-25.10;99.90
15107;DHT22;7654;45.308;-75.096;2023-02-01T07:41:36;-25.20;99.90
15107;DHT22;7654;45.308;-75.096;2023-02-01T07:44:06;-25.20;99.90
15107;DHT22;7654;45.308;-75.096;2023-02-01T07:46:36;-25.20;99.90
15107;DHT22;7654;45.308;-75.096;2023-02-01T07:49:09;-25.20;99.90
15107;DHT22;7654;45.308;-75.096;2023-02-01T07:51:40;-25.20;99.90
15107;DHT22;7654;45.308;-75.096;2023-02-01T07:54:10;-25.20;99.90
15107;DHT22;7654;45.308;-75.096;2023-02-01T07:56:42;-25.20;99.90
15107;DHT22;7654;45.308;-75.096;2023-02-01T07:59:12;-25.20;99.90
15107;DHT22;7654;45.308;-75.096;2023-02-01T08:01:43;-25.10;99.90
15107;DHT22;7654;45.308;-75.096;2023-02-01T08:04:12;-25.00;99.90
15107;DHT22;7654;45.308;-75.096;2023-02-01T08:06:43;-24.80;99.90
15107;DHT22;7654;45.308;-75.096;2023-02-01T08:09:13;-24.70;99.90
15107;DHT22;7654;45.308;-75.096;2023-02-01T08:11:45;-24.70;99.90
15107;DHT22;7654;45.308;-75.096;2023-02-01T08:14:15;-24.70;99.90
15107;DHT22;7654;45.308;-75.096;2023-02-01T08:16:45;-24.80;99.90
15107;DHT22;7654;45.308;-75.096;2023-02-01T08:19:15;-24.80;99.90
15107;DHT22;7654;45.308;-75.096;2023-02-01T08:21:47;-24.80;99.90
15107;DHT22;7654;45.308;-75.096;2023-02-01T08:24:18;-24.70;99.90
15107;DHT22;7654;45.308;-75.096;2023-02-01T08:26:51;-24.70;99.90
15107;DHT22;7654;45.308;-75.096;2023-02-01T08:29:21;-24.80;99.90
15107;DHT22;7654;45.308;-75.096;2023-02-01T08:31:51;-24.80;99.90
15107;DHT22;7654;45.308;-75.096;2023-02-01T08:34:22;-24.90;99.90
15107;DHT22;7654;45.308;-75.096;2023-02-01T08:36:53;-24.90;99.90
15107;DHT22;7654;45.308;-75.096;2023-02-01T08:39:27;-24.70;99.90
15107;DHT22;7654;45.308;-75.096;2023-02-01T08:41:58;-24.70;99.90
15107;DHT22;7654;45.308;-75.096;2023-02-01T08:44:54;-24.70;99.90
15107;DHT22;7654;45.308;-75.096;2023-02-01T08:47:24;-24.80;99.90
15107;DHT22;7654;45.308;-75.096;2023-02-01T08:49:54;-24.90;99.90
15107;DHT22;7654;45.308;-75.096;2023-02-01T08:52:25;-24.90;99.90
15107;DHT22;7654;45.308;-75.096;2023-02-01T08:54:55;-25.00;99.90
15107;DHT22;7654;45.308;-75.096;2023-02-01T08:57:26;-25.00;99.90
15107;DHT22;7654;45.308;-75.096;2023-02-01T08:59:57;-25.10;99.90
15107;DHT22;7654;45.308;-75.096;2023-02-01T09:02:27;-25.20;99.90
15107;DHT22;7654;45.308;-75.096;2023-02-01T09:04:57;-25.20;99.90
15107;DHT22;7654;45.308;-75.096;2023-02-01T09:07:27;-25.20;99.90
15107;DHT22;7654;45.308;-75.096;2023-02-01T09:09:58;-25.20;99.90
15107;DHT22;7654;45.308;-75.096;2023-02-01T09:12:31;-25.10;99.90
15107;DHT22;7654;45.308;-75.096;2023-02-01T09:15:03;-25.10;99.90
15107;DHT22;7654;45.308;-75.096;2023-02-01T09:17:35;-25.00;99.90
15107;DHT22;7654;45.308;-75.096;2023-02-01T09:20:05;-25.00;99.90
15107;DHT22;7654;45.308;-75.096;2023-02-01T09:22:36;-24.80;99.90
15107;DHT22;7654;45.308;-75.096;2023-02-01T09:25:08;-24.70;99.90
15107;DHT22;7654;45.308;-75.096;2023-02-01T09:27:40;-24.60;99.90
15107;DHT22;7654;45.308;-75.096;2023-02-01T09:30:11;-24.40;99.90
15107;DHT22;7654;45.308;-75.096;2023-02-01T09:32:41;-24.10;99.90
15107;DHT22;7654;45.308;-75.096;2023-02-01T09:35:11;-23.90;99.90
15107;DHT22;7654;45.308;-75.096;2023-02-01T09:37:41;-23.70;99.90
15107;DHT22;7654;45.308;-75.096;2023-02-01T09:40:14;-23.40;99.90
15107;DHT22;7654;45.308;-75.096;2023-02-01T09:43:00;-23.20;99.90
15107;DHT22;7654;45.308;-75.096;2023-02-01T09:45:42;-23.10;99.90
15107;DHT22;7654;45.308;-75.096;2023-02-01T09:48:16;-23.00;99.90
15107;DHT22;7654;45.308;-75.096;2023-02-01T09:50:50;-22.80;99.90
15107;DHT22;7654;45.308;-75.096;2023-02-01T09:53:27;-22.70;99.90
15107;DHT22;7654;45.308;-75.096;2023-02-01T09:56:02;-22.70;99.90
15107;DHT22;7654;45.308;-75.096;2023-02-01T09:58:39;-22.70;99.90
15107;DHT22;7654;45.308;-75.096;2023-02-01T10:01:16;-22.80;99.90
15107;DHT22;7654;45.308;-75.096;2023-02-01T10:03:49;-22.90;99.90
15107;DHT22;7654;45.308;-75.096;2023-02-01T10:06:36;-23.00;99.90
15107;DHT22;7654;45.308;-75.096;2023-02-01T10:09:20;-23.00;99.90
15107;DHT22;7654;45.308;-75.096;2023-02-01T10:12:22;-23.10;99.90
15107;DHT22;7654;45.308;-75.096;2023-02-01T10:15:13;-23.10;99.90
15107;DHT22;7654;45.308;-75.096;2023-02-01T10:17:53;-23.20;99.90
15107;DHT22;7654;45.308;-75.096;2023-02-01T10:20:30;-23.20;99.90
15107;DHT22;7654;45.308;-75.096;2023-02-01T10:23:15;-23.30;99.90
15107;DHT22;7654;45.308;-75.096;2023-02-01T10:26:08;-23.40;99.90
15107;DHT22;7654;45.308;-75.096;2023-02-01T10:28:44;-23.50;99.90
15107;DHT22;7654;45.308;-75.096;2023-02-01T10:31:18;-23.50;99.90
15107;DHT22;7654;45.308;-75.096;2023-02-01T10:33:52;-23.50;99.90
15107;DHT22;7654;45.308;-75.096;2023-02-01T10:36:29;-23.50;99.90
15107;DHT22;7654;45.308;-75.096;2023-02-01T10:39:01;-23.50;99.90
15107;DHT22;7654;45.308;-75.096;2023-02-01T10:41:33;-23.50;99.90
15107;DHT22;7654;45.308;-75.096;2023-02-01T10:44:10;-23.30;99.90
15107;DHT22;7654;45.308;-75.096;2023-02-01T10:46:42;-23.20;99.90
15107;DHT22;7654;45.308;-75.096;2023-02-01T10:49:17;-23.10;99.90
15107;DHT22;7654;45.308;-75.096;2023-02-01T10:51:51;-23.00;99.90
15107;DHT22;7654;45.308;-75.096;2023-02-01T10:54:32;-22.80;99.90
15107;DHT22;7654;45.308;-75.096;2023-02-01T10:57:03;-22.70;99.90
15107;DHT22;7654;45.308;-75.096;2023-02-01T10:59:36;-22.50;99.90
15107;DHT22;7654;45.308;-75.096;2023-02-01T11:02:19;-22.40;99.90
15107;DHT22;7654;45.308;-75.096;2023-02-01T11:04:51;-22.20;99.90
15107;DHT22;7654;45.308;-75.096;2023-02-01T11:07:29;-22.10;99.90
15107;DHT22;7654;45.308;-75.096;2023-02-01T11:09:59;-21.90;99.90
15107;DHT22;7654;45.308;-75.096;2023-02-01T11:12:32;-21.70;99.90
15107;DHT22;7654;45.308;-75.096;2023-02-01T11:15:13;-21.60;99.90
15107;DHT22;7654;45.308;-75.096;2023-02-01T11:17:47;-21.40;99.90
15107;DHT22;7654;45.308;-75.096;2023-02-01T11:20:33;-21.30;99.90
15107;DHT22;7654;45.308;-75.096;2023-02-01T11:23:05;-21.20;99.90
15107;DHT22;7654;45.308;-75.096;2023-02-01T11:25:36;-21.10;99.90
15107;DHT22;7654;45.308;-75.096;2023-02-01T11:28:08;-21.00;99.90
15107;DHT22;7654;45.308;-75.096;2023-02-01T11:30:42;-20.90;99.90
15107;DHT22;7654;45.308;-75.096;2023-02-01T11:33:18;-20.80;99.90
15107;DHT22;7654;45.308;-75.096;2023-02-01T11:35:49;-20.70;99.90
15107;DHT22;7654;45.308;-75.096;2023-02-01T11:38:23;-20.60;99.90
15107;DHT22;7654;45.308;-75.096;2023-02-01T11:40:55;-20.50;99.90
15107;DHT22;7654;45.308;-75.096;2023-02-01T11:43:27;-20.50;99.90
15107;DHT22;7654;45.308;-75.096;2023-02-01T11:45:59;-20.50;99.90
15107;DHT22;7654;45.308;-75.096;2023-02-01T11:48:32;-20.50;99.90
15107;DHT22;7654;45.308;-75.096;2023-02-01T11:51:14;-20.50;99.90
15107;DHT22;7654;45.308;-75.096;2023-02-01T11:54:03;-20.50;99.90
15107;DHT22;7654;45.308;-75.096;2023-02-01T11:56:37;-20.50;99.90
15107;DHT22;7654;45.308;-75.096;2023-02-01T11:59:30;-20.60;99.90
15107;DHT22;7654;45.308;-75.096;2023-02-01T12:05:25;-20.80;99.90
15107;DHT22;7654;45.308;-75.096;2023-02-01T12:08:16;-21.00;99.90
15107;DHT22;7654;45.308;-75.096;2023-02-01T12:11:01;-21.10;99.90
15107;DHT22;7654;45.308;-75.096;2023-02-01T12:13:48;-21.10;99.90
15107;DHT22;7654;45.308;-75.096;2023-02-01T12:16:29;-21.10;99.90
15107;DHT22;7654;45.308;-75.096;2023-02-01T12:19:32;-21.10;99.90
15107;DHT22;7654;45.308;-75.096;2023-02-01T12:22:18;-21.10;99.90
15107;DHT22;7654;45.308;-75.096;2023-02-01T12:25:09;-21.00;99.90
15107;DHT22;7654;45.308;-75.096;2023-02-01T12:28:06;-20.90;99.90
15107;DHT22;7654;45.308;-75.096;2023-02-01T12:30:58;-20.80;99.90
15107;DHT22;7654;45.308;-75.096;2023-02-01T12:33:43;-20.70;99.90
15107;DHT22;7654;45.308;-75.096;2023-02-01T12:36:21;-20.60;99.90
15107;DHT22;7654;45.308;-75.096;2023-02-01T12:39:05;-20.40;99.90
15107;DHT22;7654;45.308;-75.096;2023-02-01T12:41:55;-20.20;99.90
15107;DHT22;7654;45.308;-75.096;2023-02-01T12:44:35;-19.90;99.90
15107;DHT22;7654;45.308;-75.096;2023-02-01T12:47:12;-19.70;99.90
15107;DHT22;7654;45.308;-75.096;2023-02-01T12:49:53;-19.50;99.90
15107;DHT22;7654;45.308;-75.096;2023-02-01T12:52:30;-19.30;99.90
15107;DHT22;7654;45.308;-75.096;2023-02-01T12:55:20;-19.10;99.90
15107;DHT22;7654;45.308;-75.096;2023-02-01T12:58:00;-18.90;99.90
15107;DHT22;7654;45.308;-75.096;2023-02-01T13:00:34;-18.70;99.90
15107;DHT22;7654;45.308;-75.096;2023-02-01T13:03:11;-18.60;99.90
15107;DHT22;7654;45.308;-75.096;2023-02-01T13:05:50;-18.30;99.90
15107;DHT22;7654;45.308;-75.096;2023-02-01T13:08:25;-18.00;99.90
15107;DHT22;7654;45.308;-75.096;2023-02-01T13:11:00;-17.90;99.90
15107;DHT22;7654;45.308;-75.096;2023-02-01T13:13:39;-17.80;99.90
15107;DHT22;7654;45.308;-75.096;2023-02-01T13:16:14;-17.70;99.90
15107;DHT22;7654;45.308;-75.096;2023-02-01T13:18:49;-17.70;99.90
15107;DHT22;7654;45.308;-75.096;2023-02-01T13:21:23;-17.60;99.90
15107;DHT22;7654;45.308;-75.096;2023-02-01T13:23:54;-17.50;99.90
15107;DHT22;7654;45.308;-75.096;2023-02-01T13:26:27;-17.30;99.90
15107;DHT22;7654;45.308;-75.096;2023-02-01T13:29:00;-17.00;99.90
15107;DHT22;7654;45.308;-75.096;2023-02-01T13:31:52;-17.00;99.90
15107;DHT22;7654;45.308;-75.096;2023-02-01T13:34:47;-16.90;99.90
15107;DHT22;7654;45.308;-75.096;2023-02-01T13:37:31;-16.60;99.90
15107;DHT22;7654;45.308;-75.096;2023-02-01T13:40:35;-16.50;99.90
15107;DHT22;7654;45.308;-75.096;2023-02-01T13:43:13;-16.70;99.90
15107;DHT22;7654;45.308;-75.096;2023-02-01T13:45:47;-16.80;99.90
15107;DHT22;7654;45.308;-75.096;2023-02-01T13:48:23;-16.70;99.90
15107;DHT22;7654;45.308;-75.096;2023-02-01T13:50:56;-16.50;99.90
15107;DHT22;7654;45.308;-75.096;2023-02-01T13:53:29;-16.40;99.90
15107;DHT22;7654;45.308;-75.096;2023-02-01T13:56:02;-16.40;99.90
15107;DHT22;7654;45.308;-75.096;2023-02-01T13:58:37;-16.30;99.90
15107;DHT22;7654;45.308;-75.096;2023-02-01T14:01:33;-16.10;99.90
15107;DHT22;7654;45.308;-75.096;2023-02-01T14:04:06;-16.00;99.90
15107;DHT22;7654;45.308;-75.096;2023-02-01T14:06:56;-15.80;99.90
15107;DHT22;7654;45.308;-75.096;2023-02-01T14:09:33;-15.50;99.90
15107;DHT22;7654;45.308;-75.096;2023-02-01T14:12:45;-15.30;99.90
15107;DHT22;7654;45.308;-75.096;2023-02-01T14:15:25;-15.30;99.90
15107;DHT22;7654;45.308;-75.096;2023-02-01T14:17:56;-15.10;99.90
15107;DHT22;7654;45.308;-75.096;2023-02-01T14:20:45;-14.90;99.90
15107;DHT22;7654;45.308;-75.096;2023-02-01T14:23:25;-14.60;99.90
15107;DHT22;7654;45.308;-75.096;2023-02-01T14:26:21;-14.70;99.90
15107;DHT22;7654;45.308;-75.096;2023-02-01T14:28:56;-14.50;99.90
15107;DHT22;7654;45.308;-75.096;2023-02-01T14:31:51;-14.20;99.90
15107;DHT22;7654;45.308;-75.096;2023-02-01T14:34:29;-14.40;99.90
15107;DHT22;7654;45.308;-75.096;2023-02-01T14:37:02;-14.70;99.90
15107;DHT22;7654;45.308;-75.096;2023-02-01T14:39:46;-14.70;99.90
15107;DHT22;7654;45.308;-75.096;2023-02-01T14:42:21;-14.30;99.90
15107;DHT22;7654;45.308;-75.096;2023-02-01T14:44:53;-13.80;99.90
15107;DHT22;7654;45.308;-75.096;2023-02-01T14:47:31;-13.40;99.90
15107;DHT22;7654;45.308;-75.096;2023-02-01T14:50:27;-13.30;99.90
15107;DHT22;7654;45.308;-75.096;2023-02-01T14:53:28;-12.70;99.90
15107;DHT22;7654;45.308;-75.096;2023-02-01T14:56:04;-12.60;99.90
15107;DHT22;7654;45.308;-75.096;2023-02-01T14:58:41;-12.70;99.90
15107;DHT22;7654;45.308;-75.096;2023-02-01T15:01:18;-13.20;99.90
15107;DHT22;7654;45.308;-75.096;2023-02-01T15:04:01;-12.70;99.90
15107;DHT22;7654;45.308;-75.096;2023-02-01T15:06:37;-11.80;99.90
15107;DHT22;7654;45.308;-75.096;2023-02-01T15:09:12;-11.60;99.90
15107;DHT22;7654;45.308;-75.096;2023-02-01T15:11:59;-11.60;99.90
15107;DHT22;7654;45.308;-75.096;2023-02-01T15:14:32;-11.20;99.90
15107;DHT22;7654;45.308;-75.096;2023-02-01T15:17:15;-11.50;99.90
15107;DHT22;7654;45.308;-75.096;2023-02-01T15:19:55;-11.10;99.90
15107;DHT22;7654;45.308;-75.096;2023-02-01T15:22:26;-10.60;99.90
15107;DHT22;7654;45.308;-75.096;2023-02-01T15:24:59;-10.40;99.90
15107;DHT22;7654;45.308;-75.096;2023-02-01T15:27:31;-10.20;99.90
15107;DHT22;7654;45.308;-75.096;2023-02-01T15:30:06;-9.90;99.90
15107;DHT22;7654;45.308;-75.096;2023-02-01T15:32:38;-9.70;99.90
15107;DHT22;7654;45.308;-75.096;2023-02-01T15:35:38;-9.30;99.90
15107;DHT22;7654;45.308;-75.096;2023-02-01T15:38:46;-8.90;99.90
15107;DHT22;7654;45.308;-75.096;2023-02-01T15:41:17;-8.50;99.90
15107;DHT22;7654;45.308;-75.096;2023-02-01T15:44:03;-8.20;99.90
15107;DHT22;7654;45.308;-75.096;2023-02-01T15:46:38;-8.10;99.90
15107;DHT22;7654;45.308;-75.096;2023-02-01T15:49:19;-7.80;99.90
15107;DHT22;7654;45.308;-75.096;2023-02-01T15:51:52;-7.90;99.90
15107;DHT22;7654;45.308;-75.096;2023-02-01T15:54:26;-8.10;99.90
15107;DHT22;7654;45.308;-75.096;2023-02-01T15:57:00;-7.90;99.90
15107;DHT22;7654;45.308;-75.096;2023-02-01T15:59:36;-8.00;99.90
15107;DHT22;7654;45.308;-75.096;2023-02-01T16:02:33;-8.00;99.90
15107;DHT22;7654;45.308;-75.096;2023-02-01T16:05:05;-8.00;99.90